createdAt,value
2019-05-11T00:01:00.126Z,9.43
2019-05-11T00:03:29.167Z,10.80
2019-05-11T00:05:58.139Z,9.03
2019-05-11T00:08:27.027Z,10.40
2019-05-11T00:10:58.037Z,8.50
2019-05-11T00:13:27.749Z,10.47
2019-05-11T00:15:57.049Z,9.57
2019-05-11T00:18:26.387Z,9.90
2019-05-11T00:20:55.513Z,10.00
2019-05-11T00:23:24.479Z,9.80
2019-05-11T00:25:55.628Z,9.27
2019-05-11T00:28:25.009Z,9.23
2019-05-11T00:30:54.074Z,10.50
2019-05-11T00:33:23.120Z,10.87
2019-05-11T00:35:52.425Z,10.40
2019-05-11T00:38:21.827Z,10.17
2019-05-11T00:40:50.920Z,9.97
2019-05-11T00:43:19.887Z,12.40
2019-05-11T00:45:49.125Z,12.20
2019-05-11T00:48:18.386Z,12.17
2019-05-11T00:50:47.496Z,12.57
2019-05-11T00:53:16.759Z,12.63
2019-05-11T00:55:45.804Z,13.30
2019-05-11T00:58:14.755Z,12.07
2019-05-11T01:00:43.779Z,12.30
2019-05-11T01:03:12.774Z,13.07
2019-05-11T01:05:41.620Z,12.70
2019-05-11T01:08:10.572Z,15.23
2019-05-11T01:10:42.480Z,15.13
2019-05-11T01:13:10.300Z,12.97
2019-05-11T01:15:39.222Z,16.00
2019-05-11T01:18:08.048Z,14.80
2019-05-11T01:20:37.213Z,13.33
2019-05-11T01:23:06.059Z,12.93
2019-05-11T01:25:34.967Z,15.93
2019-05-11T01:28:03.883Z,14.67
2019-05-11T01:30:33.243Z,14.33
2019-05-11T01:33:02.107Z,15.97
2019-05-11T01:35:51.218Z,13.87
2019-05-11T01:38:20.399Z,13.33
2019-05-11T01:40:58.007Z,16.00
2019-05-11T01:43:20.381Z,14.97
2019-05-11T01:45:49.350Z,14.67
2019-05-11T01:48:18.322Z,12.30
2019-05-11T01:50:47.269Z,13.40
2019-05-11T01:53:16.812Z,12.03
2019-05-11T01:56:05.651Z,11.70
2019-05-11T01:58:34.636Z,12.03
2019-05-11T02:01:03.859Z,12.30
2019-05-11T02:03:32.751Z,11.57
2019-05-11T02:06:01.756Z,13.10
2019-05-11T02:08:30.940Z,12.73
2019-05-11T02:11:14.830Z,12.63
2019-05-11T02:13:30.767Z,13.53
2019-05-11T02:15:59.707Z,11.87
2019-05-11T02:18:28.672Z,11.83
2019-05-11T02:20:57.506Z,11.23
2019-05-11T02:23:27.395Z,12.63
2019-05-11T02:25:56.323Z,12.20
2019-05-11T02:28:25.400Z,13.03
2019-05-11T02:30:54.327Z,11.70
2019-05-11T02:33:23.625Z,10.63
2019-05-11T02:35:52.476Z,11.20
2019-05-11T02:38:21.696Z,13.00
2019-05-11T02:40:50.726Z,11.00
2019-05-11T02:43:20.010Z,12.57
2019-05-11T02:45:49.249Z,14.40
2019-05-11T02:48:18.180Z,15.77
2019-05-11T02:50:47.977Z,14.97
2019-05-11T02:53:18.274Z,12.67
2019-05-11T02:55:48.767Z,13.57
2019-05-11T02:58:17.763Z,14.07
2019-05-11T03:00:47.357Z,13.20
2019-05-11T03:03:16.299Z,13.23
2019-05-11T03:05:45.242Z,14.43
2019-05-11T03:08:14.174Z,12.30
2019-05-11T03:10:43.165Z,13.83
2019-05-11T03:13:12.210Z,14.17
2019-05-11T03:15:41.066Z,11.90
2019-05-11T03:18:10.117Z,13.27
2019-05-11T03:20:39.055Z,13.50
2019-05-11T03:23:07.975Z,11.20
2019-05-11T03:25:36.983Z,12.47
2019-05-11T03:28:05.990Z,14.30
2019-05-11T03:30:34.999Z,12.83
2019-05-11T03:33:03.909Z,14.07
2019-05-11T03:35:32.976Z,13.53
2019-05-11T03:38:02.040Z,12.63
2019-05-11T03:40:30.992Z,12.13
2019-05-11T03:42:59.966Z,13.00
2019-05-11T03:45:29.266Z,13.37
2019-05-11T03:47:58.135Z,11.37
2019-05-11T03:50:27.405Z,11.70
2019-05-11T03:52:56.260Z,11.43
2019-05-11T03:55:25.159Z,12.47
2019-05-11T03:57:54.040Z,12.43
2019-05-11T04:00:23.155Z,13.77
2019-05-11T04:02:52.089Z,12.30
2019-05-11T04:05:21.085Z,12.70
2019-05-11T04:07:50.156Z,11.40
2019-05-11T04:10:19.159Z,12.83
2019-05-11T04:12:47.986Z,11.13
2019-05-11T04:15:17.785Z,11.20
2019-05-11T04:17:46.701Z,12.50
2019-05-11T04:20:15.901Z,12.20
2019-05-11T04:22:44.756Z,11.20
2019-05-11T04:25:14.235Z,11.47
2019-05-11T04:27:43.269Z,11.60
2019-05-11T04:30:12.454Z,13.53
2019-05-11T04:32:41.603Z,12.07
2019-05-11T04:35:10.759Z,11.40
2019-05-11T04:37:39.755Z,13.00
2019-05-11T04:40:08.888Z,11.07
2019-05-11T04:42:53.438Z,10.73
2019-05-11T04:45:08.725Z,13.83
2019-05-11T04:47:37.839Z,12.82
2019-05-11T04:50:07.287Z,10.67
2019-05-11T04:52:36.123Z,11.70
2019-05-11T04:55:05.479Z,8.90
2019-05-11T04:57:34.597Z,7.83
2019-05-11T05:00:04.528Z,8.93
2019-05-11T05:02:33.648Z,10.23
2019-05-11T05:05:02.546Z,12.00
2019-05-11T05:07:31.850Z,10.90
2019-05-11T05:10:01.016Z,11.20
2019-05-11T05:12:30.363Z,10.77
2019-05-11T05:14:59.483Z,9.73
2019-05-11T05:17:29.554Z,11.10
2019-05-11T05:19:58.690Z,12.90
2019-05-11T05:22:28.177Z,18.53
2019-05-11T05:24:57.367Z,17.50
2019-05-11T05:27:26.205Z,17.20
2019-05-11T05:29:55.239Z,17.97
2019-05-11T05:32:24.080Z,18.07
2019-05-11T05:34:52.932Z,19.83
2019-05-11T05:37:21.980Z,21.50
2019-05-11T05:39:50.918Z,21.03
2019-05-11T05:42:19.854Z,19.87
2019-05-11T05:44:48.719Z,17.33
2019-05-11T05:47:21.744Z,18.00
2019-05-11T05:49:53.477Z,17.70
2019-05-11T05:52:22.411Z,26.17
2019-05-11T05:54:51.587Z,19.77
2019-05-11T05:57:20.563Z,20.47
2019-05-11T05:59:51.966Z,18.50
2019-05-11T06:02:23.217Z,17.30
2019-05-11T06:04:55.693Z,16.77
2019-05-11T06:07:28.695Z,16.30
2019-05-11T06:09:59.181Z,17.20
2019-05-11T06:12:28.596Z,15.07
2019-05-11T06:14:58.406Z,17.60
2019-05-11T06:17:27.269Z,16.63
2019-05-11T06:19:56.212Z,15.00
2019-05-11T06:22:25.052Z,14.67
2019-05-11T06:24:53.923Z,14.20
2019-05-11T06:27:22.968Z,13.07
2019-05-11T06:29:51.925Z,13.50
2019-05-11T06:32:20.829Z,13.23
2019-05-11T06:34:49.830Z,13.97
2019-05-11T06:37:19.061Z,13.87
2019-05-11T06:39:48.104Z,11.27
2019-05-11T06:42:18.299Z,12.97
2019-05-11T06:44:47.347Z,11.97
2019-05-11T06:47:16.535Z,11.60
2019-05-11T06:49:45.872Z,11.60
2019-05-11T06:52:15.223Z,13.17
2019-05-11T06:54:44.398Z,14.37
2019-05-11T06:57:13.328Z,16.20
2019-05-11T06:59:42.645Z,13.73
2019-05-11T07:02:11.706Z,14.27
2019-05-11T07:04:41.226Z,16.57
2019-05-11T07:07:10.052Z,17.13
2019-05-11T07:09:38.974Z,17.83
2019-05-11T07:12:08.347Z,18.13
2019-05-11T07:14:37.561Z,17.97
2019-05-11T07:17:06.695Z,16.63
2019-05-11T07:19:36.021Z,18.23
2019-05-11T07:22:05.531Z,15.70
2019-05-11T07:24:34.385Z,13.43
2019-05-11T07:27:03.671Z,14.87
2019-05-11T07:29:33.055Z,14.90
2019-05-11T07:32:10.079Z,12.00
2019-05-11T07:34:33.541Z,11.70
2019-05-11T07:37:02.480Z,10.03
2019-05-11T07:39:31.772Z,9.43
2019-05-11T07:42:00.790Z,9.13
2019-05-11T07:44:37.820Z,8.47
2019-05-11T07:47:00.567Z,6.87
2019-05-11T07:49:30.169Z,6.53
2019-05-11T07:51:59.567Z,5.27
2019-05-11T07:54:29.056Z,7.00
2019-05-11T07:56:58.604Z,7.10
2019-05-11T07:59:28.892Z,6.90
2019-05-11T08:01:58.420Z,5.70
2019-05-11T08:04:28.812Z,7.90
2019-05-11T08:06:58.594Z,8.73
2019-05-11T08:09:27.970Z,8.30
2019-05-11T08:12:01.970Z,10.00
2019-05-11T08:14:31.102Z,11.33
2019-05-11T08:17:00.174Z,13.70
2019-05-11T08:19:30.020Z,12.23
2019-05-11T08:22:00.563Z,12.90
2019-05-11T08:24:29.839Z,13.50
2019-05-11T08:26:58.851Z,12.80
2019-05-11T08:29:28.058Z,12.10
2019-05-11T08:31:57.930Z,200.60
2019-05-11T08:34:28.743Z,94.50
2019-05-11T08:36:58.511Z,19.23
2019-05-11T08:39:30.123Z,15.03
2019-05-11T08:41:59.273Z,12.50
2019-05-11T08:44:30.005Z,12.50
2019-05-11T08:46:58.856Z,12.60
2019-05-11T08:49:28.619Z,15.70
2019-05-11T08:51:58.147Z,12.00
2019-05-11T08:54:28.896Z,14.03
2019-05-11T08:56:58.687Z,13.77
2019-05-11T08:59:28.160Z,14.70
2019-05-11T09:01:58.801Z,15.00
2019-05-11T09:04:28.977Z,15.57
2019-05-11T09:06:58.696Z,14.17
2019-05-11T09:09:28.642Z,16.53
2019-05-11T09:11:58.908Z,17.60
2019-05-11T09:14:28.639Z,18.47
2019-05-11T09:16:58.030Z,20.37
2019-05-11T09:19:28.517Z,17.07
2019-05-11T09:21:58.814Z,18.43
2019-05-11T09:24:28.631Z,18.00
2019-05-11T09:26:58.615Z,18.60
2019-05-11T09:29:28.322Z,20.13
2019-05-11T09:31:58.312Z,18.47
2019-05-11T09:34:28.863Z,20.37
2019-05-11T09:36:58.777Z,20.87
2019-05-11T09:39:28.187Z,20.07
2019-05-11T09:41:58.615Z,20.70
2019-05-11T09:44:28.901Z,23.53
2019-05-11T09:47:02.228Z,23.37
2019-05-11T09:49:44.008Z,22.40
2019-05-11T09:51:59.601Z,24.20
2019-05-11T09:54:29.068Z,23.00
2019-05-11T09:56:58.314Z,25.73
2019-05-11T09:59:28.214Z,28.63
2019-05-11T10:01:58.925Z,28.60
2019-05-11T10:04:28.981Z,29.77
2019-05-11T10:06:58.643Z,31.07
2019-05-11T10:09:28.273Z,34.53
2019-05-11T10:11:58.455Z,35.10
2019-05-11T10:14:28.951Z,36.00
2019-05-11T10:16:58.590Z,39.13
2019-05-11T10:19:28.565Z,39.00
2019-05-11T10:21:58.230Z,40.80
2019-05-11T10:24:28.286Z,38.70
2019-05-11T10:26:57.897Z,40.40
2019-05-11T10:29:28.961Z,43.07
2019-05-11T10:31:58.696Z,43.67
2019-05-11T10:34:34.455Z,43.60
2019-05-11T10:37:14.282Z,44.07
2019-05-11T10:39:43.636Z,42.87
2019-05-11T10:42:18.116Z,46.40
2019-05-11T10:44:52.361Z,45.77
2019-05-11T10:47:27.917Z,43.23
2019-05-11T10:50:08.498Z,40.67
2019-05-11T10:52:44.631Z,42.60
2019-05-11T10:55:14.311Z,36.87
2019-05-11T10:57:43.461Z,40.30
2019-05-11T11:00:13.010Z,39.90
2019-05-11T11:02:42.454Z,42.20
2019-05-11T11:05:12.524Z,38.20
2019-05-11T11:07:41.668Z,36.93
2019-05-11T11:10:10.996Z,37.60
2019-05-11T11:12:39.982Z,35.50
2019-05-11T11:15:10.085Z,35.30
2019-05-11T11:17:39.505Z,31.52
2019-05-11T11:20:09.767Z,30.37
2019-05-11T11:22:43.382Z,33.20
2019-05-11T11:25:09.678Z,32.67
2019-05-11T11:27:39.138Z,33.90
2019-05-11T11:30:14.889Z,31.37
2019-05-11T11:32:45.084Z,27.03
2019-05-11T11:35:14.725Z,32.50
2019-05-11T11:37:44.155Z,26.83
2019-05-11T11:40:13.770Z,27.20
2019-05-11T11:42:43.219Z,28.40
2019-05-11T11:45:13.252Z,27.60
2019-05-11T11:47:42.266Z,26.17
2019-05-11T11:50:11.625Z,25.53
2019-05-11T11:52:40.767Z,27.23
2019-05-11T11:55:11.293Z,28.30
2019-05-11T11:57:40.572Z,22.40
2019-05-11T12:00:22.605Z,24.87
2019-05-11T12:02:51.923Z,19.90
2019-05-11T12:05:21.439Z,21.77
2019-05-11T12:07:50.604Z,20.23
2019-05-11T12:10:19.713Z,22.57
2019-05-11T12:12:49.156Z,18.93
2019-05-11T12:15:18.740Z,17.17
2019-05-11T12:17:48.721Z,16.03
2019-05-11T12:20:18.429Z,14.80
2019-05-11T12:22:47.823Z,15.97
2019-05-11T12:25:18.600Z,15.57
2019-05-11T12:27:49.118Z,12.40
2019-05-11T12:30:19.336Z,13.27
2019-05-11T12:32:49.871Z,13.97
2019-05-11T12:35:19.147Z,12.50
2019-05-11T12:37:49.409Z,13.30
2019-05-11T12:40:19.271Z,13.90
2019-05-11T12:42:49.025Z,15.20
2019-05-11T12:45:18.544Z,13.23
2019-05-11T12:47:48.142Z,11.30
2019-05-11T12:50:18.622Z,14.07
2019-05-11T12:52:48.372Z,12.23
2019-05-11T12:55:18.157Z,10.63
2019-05-11T12:57:48.672Z,11.73
2019-05-11T13:00:19.094Z,12.67
2019-05-11T13:02:48.974Z,10.80
2019-05-11T13:05:19.646Z,11.20
2019-05-11T13:07:49.433Z,9.77
2019-05-11T13:10:20.160Z,11.47
2019-05-11T13:12:49.594Z,10.30
2019-05-11T13:15:19.194Z,10.67
2019-05-11T13:17:49.182Z,11.10
2019-05-11T13:20:18.577Z,13.10
2019-05-11T13:22:49.553Z,11.60
2019-05-11T13:25:18.441Z,11.37
2019-05-11T13:27:49.134Z,13.20
2019-05-11T13:30:18.818Z,13.07
2019-05-11T13:32:48.960Z,12.53
2019-05-11T13:35:19.061Z,13.47
2019-05-11T13:37:48.313Z,12.33
2019-05-11T13:40:18.640Z,12.40
2019-05-11T13:42:48.975Z,11.80
2019-05-11T13:45:18.920Z,10.93
2019-05-11T13:47:55.178Z,10.97
2019-05-11T13:50:19.020Z,10.03
2019-05-11T13:52:48.589Z,11.60
2019-05-11T13:55:38.596Z,11.27
2019-05-11T13:58:08.280Z,11.77
2019-05-11T14:00:38.035Z,12.07
2019-05-11T14:03:08.847Z,10.97
2019-05-11T14:05:38.395Z,13.27
2019-05-11T14:08:08.274Z,11.07
2019-05-11T14:10:38.354Z,11.97
2019-05-11T14:13:08.796Z,11.80
2019-05-11T14:15:38.383Z,12.17
2019-05-11T14:18:09.412Z,10.43
2019-05-11T14:20:38.607Z,10.97
2019-05-11T14:23:07.884Z,9.70
2019-05-11T14:25:38.119Z,11.53
2019-05-11T14:28:08.829Z,8.60
2019-05-11T14:30:38.672Z,8.13
2019-05-11T14:33:08.815Z,11.00
2019-05-11T14:35:38.693Z,9.47
2019-05-11T14:38:08.177Z,9.00
2019-05-11T14:40:38.893Z,8.10
2019-05-11T14:43:08.544Z,9.03
2019-05-11T14:45:38.210Z,8.00
2019-05-11T14:48:22.572Z,8.40
2019-05-11T14:50:38.711Z,7.30
2019-05-11T14:53:08.773Z,6.83
2019-05-11T14:55:38.323Z,7.47
2019-05-11T14:58:08.331Z,8.20
2019-05-11T15:00:39.164Z,6.30
2019-05-11T15:03:08.479Z,7.70
2019-05-11T15:05:38.610Z,8.33
2019-05-11T15:08:08.773Z,4.93
2019-05-11T15:10:38.412Z,6.30
2019-05-11T15:13:08.147Z,6.33
2019-05-11T15:15:39.396Z,6.43
2019-05-11T15:18:08.617Z,6.03
2019-05-11T15:20:38.799Z,6.37
2019-05-11T15:23:08.819Z,7.20
2019-05-11T15:25:38.361Z,6.33
2019-05-11T15:28:08.878Z,6.03
2019-05-11T15:30:38.209Z,5.73
2019-05-11T15:33:07.856Z,6.23
2019-05-11T15:35:37.704Z,6.00
2019-05-11T15:38:08.750Z,5.70
2019-05-11T15:40:38.412Z,5.40
2019-05-11T15:43:08.764Z,6.43
2019-05-11T15:45:38.262Z,5.87
2019-05-11T15:48:08.437Z,6.57
2019-05-11T15:50:39.926Z,5.60
2019-05-11T15:53:09.107Z,5.80
2019-05-11T15:55:40.474Z,5.07
2019-05-11T15:58:09.249Z,5.60
2019-05-11T16:00:40.091Z,6.23
2019-05-11T16:03:09.732Z,5.67
2019-05-11T16:05:38.830Z,5.43
2019-05-11T16:08:08.457Z,6.30
2019-05-11T16:10:38.394Z,5.63
2019-05-11T16:13:09.194Z,5.17
2019-05-11T16:15:38.538Z,5.70
2019-05-11T16:18:08.331Z,5.97
2019-05-11T16:20:37.704Z,5.27
2019-05-11T16:23:06.734Z,7.40
2019-05-11T16:25:38.219Z,7.10
2019-05-11T16:28:07.869Z,8.40
2019-05-11T16:30:38.085Z,7.80
2019-05-11T16:33:08.685Z,7.10
2019-05-11T16:35:38.371Z,7.50
2019-05-11T16:38:07.772Z,7.70
2019-05-11T16:40:38.667Z,9.00
2019-05-11T16:43:08.576Z,8.10
2019-05-11T16:45:38.271Z,7.73
2019-05-11T16:48:07.973Z,7.43
2019-05-11T16:50:38.380Z,7.03
2019-05-11T16:53:07.831Z,8.30
2019-05-11T16:55:37.728Z,7.97
2019-05-11T16:58:08.161Z,8.40
2019-05-11T17:00:41.913Z,7.53
2019-05-11T17:03:08.336Z,8.07
2019-05-11T17:05:38.243Z,9.17
2019-05-11T17:08:08.180Z,7.93
2019-05-11T17:10:37.167Z,7.10
2019-05-11T17:13:08.437Z,8.20
2019-05-11T17:15:36.987Z,8.55
2019-05-11T17:18:07.979Z,8.00
2019-05-11T17:20:36.773Z,8.53
2019-05-11T17:23:05.858Z,10.00
2019-05-11T17:25:34.997Z,7.57
2019-05-11T17:28:06.758Z,8.60
2019-05-11T17:30:35.131Z,8.27
2019-05-11T17:33:03.959Z,8.27
2019-05-11T17:35:32.876Z,8.70
2019-05-11T17:38:02.288Z,7.90
2019-05-11T17:40:31.238Z,9.80
2019-05-11T17:43:00.908Z,8.47
2019-05-11T17:45:29.979Z,8.00
2019-05-11T17:47:58.849Z,8.77
2019-05-11T17:50:28.303Z,8.80
2019-05-11T17:52:57.454Z,7.30
2019-05-11T17:55:28.479Z,7.70
2019-05-11T17:57:58.178Z,9.07
2019-05-11T18:00:28.338Z,7.50
2019-05-11T18:02:58.341Z,8.53
2019-05-11T18:05:27.588Z,6.67
2019-05-11T18:07:57.989Z,9.17
2019-05-11T18:10:28.314Z,7.60
2019-05-11T18:12:57.935Z,6.67
2019-05-11T18:15:27.100Z,8.57
2019-05-11T18:17:58.633Z,6.63
2019-05-11T18:20:28.684Z,6.70
2019-05-11T18:22:57.925Z,6.50
2019-05-11T18:25:28.752Z,6.57
2019-05-11T18:27:58.229Z,6.77
2019-05-11T18:30:29.128Z,5.73
2019-05-11T18:32:59.456Z,7.10
2019-05-11T18:35:28.914Z,7.63
2019-05-11T18:37:57.885Z,8.33
2019-05-11T18:40:28.683Z,8.40
2019-05-11T18:42:57.910Z,7.23
2019-05-11T18:45:28.753Z,8.70
2019-05-11T18:47:57.947Z,7.67
2019-05-11T18:50:31.348Z,7.57
2019-05-11T18:52:58.162Z,6.17
2019-05-11T18:55:28.058Z,6.40
2019-05-11T18:57:58.183Z,5.37
2019-05-11T19:00:27.798Z,6.40
2019-05-11T19:02:58.063Z,4.43
2019-05-11T19:05:29.136Z,4.20
2019-05-11T19:07:58.811Z,3.20
2019-05-11T19:10:27.959Z,3.50
2019-05-11T19:12:58.990Z,3.97
2019-05-11T19:15:28.514Z,3.27
2019-05-11T19:17:58.217Z,4.03
2019-05-11T19:20:28.344Z,2.73
2019-05-11T19:22:59.032Z,2.30
2019-05-11T19:25:28.554Z,2.90
2019-05-11T19:27:58.906Z,3.73
2019-05-11T19:30:28.106Z,3.43
2019-05-11T19:32:59.040Z,3.83
2019-05-11T19:35:28.654Z,3.80
2019-05-11T19:37:58.276Z,3.93
2019-05-11T19:40:27.417Z,3.50
2019-05-11T19:42:58.997Z,3.57
2019-05-11T19:45:29.377Z,3.87
2019-05-11T19:47:59.317Z,3.10
2019-05-11T19:50:28.275Z,2.70
2019-05-11T19:52:58.087Z,3.13
2019-05-11T19:55:28.507Z,3.20
2019-05-11T19:57:58.006Z,2.93
2019-05-11T20:00:27.353Z,3.73
2019-05-11T20:02:58.387Z,3.33
2019-05-11T20:05:28.899Z,3.10
2019-05-11T20:07:58.733Z,2.70
2019-05-11T20:10:28.274Z,3.07
2019-05-11T20:12:58.797Z,2.97
2019-05-11T20:15:28.189Z,3.33
2019-05-11T20:17:58.639Z,2.40
2019-05-11T20:20:28.392Z,2.27
2019-05-11T20:22:58.472Z,2.67
2019-05-11T20:25:28.893Z,3.20
2019-05-11T20:27:58.563Z,3.20
2019-05-11T20:30:27.995Z,4.33
2019-05-11T20:32:57.044Z,2.97
2019-05-11T20:35:28.006Z,3.00
2019-05-11T20:37:58.136Z,2.70
2019-05-11T20:40:28.632Z,2.50
2019-05-11T20:42:58.687Z,2.50
2019-05-11T20:45:28.581Z,2.77
2019-05-11T20:47:58.052Z,2.67
2019-05-11T20:50:27.163Z,2.67
2019-05-11T20:52:58.254Z,2.50
2019-05-11T20:55:28.456Z,2.70
2019-05-11T20:57:58.472Z,2.47
2019-05-11T21:00:28.187Z,2.87
2019-05-11T21:02:58.794Z,2.93
2019-05-11T21:05:28.631Z,2.80
2019-05-11T21:07:58.095Z,3.43
2019-05-11T21:10:28.044Z,2.50
2019-05-11T21:12:57.873Z,2.23
2019-05-11T21:15:28.073Z,2.63
2019-05-11T21:17:58.576Z,2.63
2019-05-11T21:20:28.692Z,2.20
2019-05-11T21:22:58.481Z,3.60
2019-05-11T21:25:28.747Z,2.70
2019-05-11T21:27:58.212Z,2.70
2019-05-11T21:30:27.769Z,2.70
2019-05-11T21:32:58.188Z,3.07
2019-05-11T21:35:28.107Z,1.93
2019-05-11T21:37:57.991Z,2.70
2019-05-11T21:40:28.881Z,2.60
2019-05-11T21:42:59.398Z,2.57
2019-05-11T21:45:28.731Z,2.20
2019-05-11T21:47:58.334Z,3.13
2019-05-11T21:50:27.972Z,2.80
2019-05-11T21:52:59.046Z,2.37
2019-05-11T21:55:29.360Z,2.50
2019-05-11T21:57:58.557Z,2.13
2019-05-11T22:00:29.529Z,2.20
2019-05-11T22:02:58.765Z,2.67
2019-05-11T22:05:28.953Z,2.90
2019-05-11T22:07:58.431Z,2.93
2019-05-11T22:10:28.286Z,2.70
2019-05-11T22:12:57.719Z,2.60
2019-05-11T22:15:28.501Z,3.07
2019-05-11T22:17:58.575Z,2.30
2019-05-11T22:20:28.823Z,2.70
2019-05-11T22:22:58.550Z,3.20
2019-05-11T22:25:28.693Z,3.07
2019-05-11T22:27:58.155Z,2.23
2019-05-11T22:30:27.945Z,3.57
2019-05-11T22:32:58.336Z,2.53
2019-05-11T22:35:28.610Z,3.00
2019-05-11T22:37:58.462Z,2.20
2019-05-11T22:40:28.256Z,2.63
2019-05-11T22:42:58.355Z,2.83
2019-05-11T22:45:28.522Z,3.13
2019-05-11T22:47:58.500Z,3.57
2019-05-11T22:50:29.039Z,4.03
2019-05-11T22:52:58.687Z,3.20
2019-05-11T22:55:28.215Z,3.90
2019-05-11T22:57:58.025Z,2.90
2019-05-11T23:00:46.257Z,3.53
2019-05-11T23:03:18.639Z,2.80
2019-05-11T23:05:47.728Z,3.10
2019-05-11T23:08:18.157Z,4.10
2019-05-11T23:10:47.914Z,3.30
2019-05-11T23:13:19.120Z,3.17
2019-05-11T23:15:48.360Z,2.60
2019-05-11T23:18:18.119Z,2.97
2019-05-11T23:20:47.896Z,2.17
2019-05-11T23:23:17.793Z,2.60
2019-05-11T23:25:47.197Z,2.63
2019-05-11T23:28:18.478Z,2.33
2019-05-11T23:30:47.776Z,3.70
2019-05-11T23:33:18.441Z,2.40
2019-05-11T23:35:48.600Z,3.33
2019-05-11T23:38:17.932Z,2.07
2019-05-11T23:40:48.173Z,3.67
2019-05-11T23:43:19.203Z,2.70
2019-05-11T23:45:48.860Z,3.17
2019-05-11T23:48:18.119Z,2.90
2019-05-11T23:50:47.467Z,2.70
2019-05-11T23:53:17.817Z,2.60
2019-05-11T23:55:48.395Z,3.13
2019-05-11T23:58:19.380Z,2.60
